Sunday, April 22, 2018, 1:05 AM GMT
Back to Local

CYBG, Bagotville, Que.

Location: , , Canada Lat: 48.333
Local Time: 1:05 AM GMT ( 1:05 GMT) Lon: -71
Time Zone: GMT Elev: 521 ft

Show me the last for .
Show Coded

Time T Td Feel RH Dir Speed Gust Alt SLP Vis Weather Sky Remarks
2018-04-22 00:00 39 19 33 44 280° 9 - 30.22 30.24 25 SCT150 None
2018-04-21 23:00 43 16 35 33 280° 15 - 30.20 30.22 25 BKN150 None
2018-04-21 22:00 43 18 35 35 280° 17 - 30.19 30.21 25 FEW050 BKN150 None
2018-04-21 21:00 45 18 37 33 280° 17 - 30.19 30.21 25 FEW050 BKN140 None
2018-04-21 20:00 45 18 36 33 290° 15 22 30.19 30.21 25 FEW050 BKN150 None
2018-04-21 19:00 45 27 36 48 270° 16 22 30.19 30.21 25 FEW050 BKN150 None
2018-04-21 18:00 43 23 35 45 270° 18 - 30.21 30.23 25 FEW050 BKN160 None
2018-04-21 17:00 43 30 35 60 280° 18 - 30.21 30.23 25 FEW050 BKN240 None
2018-04-21 16:00 41 28 32 60 280° 20 - 30.21 30.24 25 FEW050 BKN240 None
2018-04-21 15:00 39 28 32 64 280° 13 - 30.22 30.25 25 FEW050 BKN240 None
2018-04-21 14:00 37 28 29 69 270° 15 - 30.23 30.25 25 FEW050 SCT240 None
2018-04-21 13:00 36 27 26 69 270° 15 - 30.24 30.26 25 BKN050 None
2018-04-21 12:00 34 27 24 74 280° 14 - 30.24 30.26 25 BKN050 None
2018-04-21 11:00 30 23 22 74 270° 9 - 30.24 30.26 25 SCT055 BKN100 None
2018-04-21 10:00 32 23 26 68 290° 7 - 30.22 30.24 25 FEW055 SCT100 None
2018-04-21 09:00 32 23 24 68 300° 9 - 30.21 30.23 25 FEW055 None
2018-04-21 08:00 36 25 28 64 310° 10 - 30.19 30.21 25 OVC055 None
2018-04-21 07:00 36 27 29 69 310° 8 - 30.19 30.21 25 OVC055 None
2018-04-21 06:00 37 25 31 60 310° 9 - 30.18 30.20 25 OVC060 None
2018-04-21 05:00 37 27 31 64 300° 8 - 30.17 30.19 25 OVC060 None
2018-04-21 04:00 37 27 31 64 300° 8 - 30.17 30.19 25 FEW040 OVC060 None
2018-04-21 03:00 39 25 33 55 300° 9 - 30.16 30.19 20 OVC069 None
2018-04-21 02:00 39 27 32 60 320° 12 - 30.16 30.18 25 OVC067 None

Support USWX by starting your Amazon purchase here.